sensor_id;sensor_type;location;lat;lon;timestamp;pressure;altitude;pressure_sealevel;temperature;humidity
66381;BME280;53177;52.648;1.214;2023-04-29T00:01:01;101366.72;;;6.97;94.25
66381;BME280;53177;52.648;1.214;2023-04-29T00:03:28;101369.38;;;7.09;94.18
66381;BME280;53177;52.648;1.214;2023-04-29T00:05:56;101364.97;;;7.02;93.24
66381;BME280;53177;52.648;1.214;2023-04-29T00:08:22;101369.38;;;7.06;93.78
66381;BME280;53177;52.648;1.214;2023-04-29T00:10:47;101372.78;;;6.80;93.55
66381;BME280;53177;52.648;1.214;2023-04-29T00:13:12;101377.00;;;6.34;95.94
66381;BME280;53177;52.648;1.214;2023-04-29T00:15:39;101379.59;;;6.27;96.92
66381;BME280;53177;52.648;1.214;2023-04-29T00:18:05;101374.19;;;6.04;97.86
66381;BME280;53177;52.648;1.214;2023-04-29T00:20:30;101377.69;;;6.05;97.30
66381;BME280;53177;52.648;1.214;2023-04-29T00:22:56;101378.56;;;6.07;97.66
66381;BME280;53177;52.648;1.214;2023-04-29T00:25:21;101379.44;;;6.01;98.11
66381;BME280;53177;52.648;1.214;2023-04-29T00:27:46;101387.31;;;6.04;97.38
66381;BME280;53177;52.648;1.214;2023-04-29T00:30:12;101384.66;;;6.03;97.94
66381;BME280;53177;52.648;1.214;2023-04-29T00:32:37;101392.66;;;6.21;96.34
66381;BME280;53177;52.648;1.214;2023-04-29T00:35:03;101386.47;;;6.05;97.01
66381;BME280;53177;52.648;1.214;2023-04-29T00:37:28;101393.34;;;5.90;98.00
66381;BME280;53177;52.648;1.214;2023-04-29T00:39:54;101389.88;;;5.91;97.95
66381;BME280;53177;52.648;1.214;2023-04-29T00:42:19;101388.97;;;5.87;98.25
66381;BME280;53177;52.648;1.214;2023-04-29T00:44:44;101386.22;;;5.75;98.24
66381;BME280;53177;52.648;1.214;2023-04-29T00:47:10;101389.75;;;5.81;98.27
66381;BME280;53177;52.648;1.214;2023-04-29T00:49:38;101386.47;;;6.10;97.26
66381;BME280;53177;52.648;1.214;2023-04-29T00:52:04;101382.09;;;6.06;96.76
66381;BME280;53177;52.648;1.214;2023-04-29T00:54:32;101388.19;;;6.06;97.28
66381;BME280;53177;52.648;1.214;2023-04-29T00:56:58;101392.53;;;6.00;97.31
66381;BME280;53177;52.648;1.214;2023-04-29T00:59:25;101390.72;;;5.90;99.17
66381;BME280;53177;52.648;1.214;2023-04-29T01:02:00;101383.78;;;5.99;98.64
66381;BME280;53177;52.648;1.214;2023-04-29T01:04:26;101393.44;;;6.02;98.17
66381;BME280;53177;52.648;1.214;2023-04-29T01:07:03;101403.97;;;6.08;98.25
66381;BME280;53177;52.648;1.214;2023-04-29T01:09:43;101399.63;;;6.13;97.84
66381;BME280;53177;52.648;1.214;2023-04-29T01:17:30;101409.34;;;6.24;97.85
66381;BME280;53177;52.648;1.214;2023-04-29T01:19:59;101407.56;;;6.20;98.55
66381;BME280;53177;52.648;1.214;2023-04-29T01:22:25;101405.75;;;6.12;98.85
66381;BME280;53177;52.648;1.214;2023-04-29T01:24:51;101404.88;;;6.13;99.68
66381;BME280;53177;52.648;1.214;2023-04-29T01:27:28;101404.91;;;6.19;99.36
66381;BME280;53177;52.648;1.214;2023-04-29T01:30:23;101408.38;;;6.12;100.00
66381;BME280;53177;52.648;1.214;2023-04-29T01:41:44;101404.66;;;5.85;100.00
66381;BME280;53177;52.648;1.214;2023-04-29T01:44:14;101406.47;;;5.90;100.00
66381;BME280;53177;52.648;1.214;2023-04-29T01:46:43;101410.84;;;5.91;100.00
66381;BME280;53177;52.648;1.214;2023-04-29T01:49:11;101408.28;;;5.98;100.00
66381;BME280;53177;52.648;1.214;2023-04-29T01:51:37;101411.63;;;5.85;100.00
66381;BME280;53177;52.648;1.214;2023-04-29T01:54:02;101418.59;;;5.78;100.00
66381;BME280;53177;52.648;1.214;2023-04-29T01:56:29;101430.13;;;5.91;100.00
66381;BME280;53177;52.648;1.214;2023-04-29T01:58:54;101424.06;;;6.03;100.00
66381;BME280;53177;52.648;1.214;2023-04-29T02:01:20;101425.88;;;6.11;100.00
66381;BME280;53177;52.648;1.214;2023-04-29T02:03:45;101421.50;;;6.15;100.00
66381;BME280;53177;52.648;1.214;2023-04-29T02:06:10;101428.50;;;6.14;99.90
66381;BME280;53177;52.648;1.214;2023-04-29T02:08:36;101423.28;;;6.17;100.00
66381;BME280;53177;52.648;1.214;2023-04-29T02:11:01;101425.91;;;6.19;99.88
66381;BME280;53177;52.648;1.214;2023-04-29T02:13:27;101427.59;;;6.08;98.89
66381;BME280;53177;52.648;1.214;2023-04-29T02:15:52;101426.66;;;6.00;99.23
66381;BME280;53177;52.648;1.214;2023-04-29T02:18:17;101424.03;;;5.98;99.13
66381;BME280;53177;52.648;1.214;2023-04-29T02:20:43;101430.97;;;5.90;99.17
66381;BME280;53177;52.648;1.214;2023-04-29T02:23:08;101439.69;;;5.87;98.48
66381;BME280;53177;52.648;1.214;2023-04-29T02:25:34;101440.63;;;5.96;99.18
66381;BME280;53177;52.648;1.214;2023-04-29T02:27:59;101440.44;;;5.74;99.49
66381;BME280;53177;52.648;1.214;2023-04-29T02:30:25;101437.84;;;5.79;99.15
66381;BME280;53177;52.648;1.214;2023-04-29T02:32:50;101432.59;;;5.80;99.18
66381;BME280;53177;52.648;1.214;2023-04-29T02:35:17;101439.47;;;5.65;99.51
66381;BME280;53177;52.648;1.214;2023-04-29T02:37:42;101444.69;;;5.63;99.59
66381;BME280;53177;52.648;1.214;2023-04-29T02:40:09;101449.81;;;5.48;100.00
66381;BME280;53177;52.648;1.214;2023-04-29T02:42:34;101450.69;;;5.49;100.00
66381;BME280;53177;52.648;1.214;2023-04-29T02:45:00;101448.00;;;5.44;100.00
66381;BME280;53177;52.648;1.214;2023-04-29T02:47:25;101450.47;;;5.27;100.00
66381;BME280;53177;52.648;1.214;2023-04-29T02:49:50;101459.13;;;5.17;100.00
66381;BME280;53177;52.648;1.214;2023-04-29T02:52:16;101445.06;;;5.14;100.00
66381;BME280;53177;52.648;1.214;2023-04-29T02:54:42;101451.16;;;5.11;100.00
66381;BME280;53177;52.648;1.214;2023-04-29T02:57:07;101452.00;;;5.10;100.00
66381;BME280;53177;52.648;1.214;2023-04-29T02:59:33;101455.50;;;5.06;100.00
66381;BME280;53177;52.648;1.214;2023-04-29T03:01:58;101449.31;;;5.01;100.00
66381;BME280;53177;52.648;1.214;2023-04-29T03:04:26;101454.53;;;4.98;100.00
66381;BME280;53177;52.648;1.214;2023-04-29T03:06:54;101459.78;;;5.03;100.00
66381;BME280;53177;52.648;1.214;2023-04-29T03:09:20;101451.94;;;5.01;100.00
66381;BME280;53177;52.648;1.214;2023-04-29T03:11:46;101453.63;;;4.98;100.00
66381;BME280;53177;52.648;1.214;2023-04-29T03:14:11;101460.59;;;4.94;100.00
66381;BME280;53177;52.648;1.214;2023-04-29T03:16:36;101458.78;;;4.91;100.00
66381;BME280;53177;52.648;1.214;2023-04-29T03:19:02;101455.31;;;4.91;100.00
66381;BME280;53177;52.648;1.214;2023-04-29T03:21:27;101459.66;;;4.90;100.00
66381;BME280;53177;52.648;1.214;2023-04-29T03:23:53;101462.28;;;4.90;100.00
66381;BME280;53177;52.648;1.214;2023-04-29T03:26:19;101463.09;;;4.88;100.00
66381;BME280;53177;52.648;1.214;2023-04-29T03:28:46;101463.09;;;4.88;100.00
66381;BME280;53177;52.648;1.214;2023-04-29T03:31:12;101452.56;;;4.82;100.00
66381;BME280;53177;52.648;1.214;2023-04-29T03:33:40;101456.91;;;4.80;100.00
66381;BME280;53177;52.648;1.214;2023-04-29T03:36:05;101464.81;;;4.83;100.00
66381;BME280;53177;52.648;1.214;2023-04-29T03:38:33;101458.84;;;4.95;100.00
66381;BME280;53177;52.648;1.214;2023-04-29T03:40:58;101455.56;;;5.14;100.00
66381;BME280;53177;52.648;1.214;2023-04-29T03:43:23;101456.56;;;5.23;100.00
66381;BME280;53177;52.648;1.214;2023-04-29T03:45:49;101459.22;;;5.28;100.00
66381;BME280;53177;52.648;1.214;2023-04-29T03:48:14;101459.25;;;5.31;100.00
66381;BME280;53177;52.648;1.214;2023-04-29T03:50:40;101459.25;;;5.31;100.00
66381;BME280;53177;52.648;1.214;2023-04-29T03:53:05;101464.50;;;5.31;100.00
66381;BME280;53177;52.648;1.214;2023-04-29T03:55:31;101470.66;;;5.34;100.00
66381;BME280;53177;52.648;1.214;2023-04-29T03:58:05;101467.19;;;5.35;100.00
66381;BME280;53177;52.648;1.214;2023-04-29T04:00:33;101467.13;;;5.32;100.00
66381;BME280;53177;52.648;1.214;2023-04-29T04:03:02;101470.50;;;5.22;100.00
66381;BME280;53177;52.648;1.214;2023-04-29T04:05:30;101468.78;;;5.23;100.00
66381;BME280;53177;52.648;1.214;2023-04-29T04:07:57;101470.50;;;5.21;100.00
66381;BME280;53177;52.648;1.214;2023-04-29T04:10:24;101469.47;;;5.08;100.00
66381;BME280;53177;52.648;1.214;2023-04-29T04:12:50;101475.31;;;4.86;100.00
66381;BME280;53177;52.648;1.214;2023-04-29T04:15:16;101473.56;;;4.85;100.00
66381;BME280;53177;52.648;1.214;2023-04-29T04:17:42;101471.22;;;5.06;100.00
66381;BME280;53177;52.648;1.214;2023-04-29T04:20:07;101480.94;;;5.16;100.00
66381;BME280;53177;52.648;1.214;2023-04-29T04:22:33;101483.56;;;5.18;99.74
66381;BME280;53177;52.648;1.214;2023-04-29T04:24:58;101494.03;;;5.18;99.87
66381;BME280;53177;52.648;1.214;2023-04-29T04:27:23;101501.06;;;5.17;98.55
66381;BME280;53177;52.648;1.214;2023-04-29T04:29:53;101494.03;;;5.18;98.33
66381;BME280;53177;52.648;1.214;2023-04-29T04:32:20;101501.09;;;5.20;98.24
66381;BME280;53177;52.648;1.214;2023-04-29T04:34:46;101502.84;;;5.20;98.15
66381;BME280;53177;52.648;1.214;2023-04-29T04:37:12;101500.19;;;5.17;97.28
66381;BME280;53177;52.648;1.214;2023-04-29T04:39:38;101508.84;;;5.11;97.33
66381;BME280;53177;52.648;1.214;2023-04-29T04:42:03;101504.44;;;5.10;97.09
66381;BME280;53177;52.648;1.214;2023-04-29T04:44:29;101512.22;;;5.03;96.19
66381;BME280;53177;52.648;1.214;2023-04-29T04:46:55;101516.34;;;4.82;96.64
66381;BME280;53177;52.648;1.214;2023-04-29T04:49:22;101507.69;;;4.89;97.60
66381;BME280;53177;52.648;1.214;2023-04-29T04:51:49;101510.09;;;4.74;97.09
66381;BME280;53177;52.648;1.214;2023-04-29T04:54:14;101516.84;;;4.57;97.35
66381;BME280;53177;52.648;1.214;2023-04-29T04:56:40;101527.41;;;4.63;97.99
66381;BME280;53177;52.648;1.214;2023-04-29T04:59:05;101524.13;;;4.76;97.83
66381;BME280;53177;52.648;1.214;2023-04-29T05:01:30;101527.69;;;4.84;97.10
66381;BME280;53177;52.648;1.214;2023-04-29T05:03:56;101527.66;;;4.80;97.06
66381;BME280;53177;52.648;1.214;2023-04-29T05:06:22;101533.03;;;4.92;96.33
66381;BME280;53177;52.648;1.214;2023-04-29T05:08:47;101536.63;;;4.97;96.66
66381;BME280;53177;52.648;1.214;2023-04-29T05:11:20;101542.75;;;4.99;95.70
66381;BME280;53177;52.648;1.214;2023-04-29T05:13:46;101545.34;;;4.96;95.65
66381;BME280;53177;52.648;1.214;2023-04-29T05:16:11;101547.06;;;4.94;96.27
66381;BME280;53177;52.648;1.214;2023-04-29T05:18:37;101547.09;;;4.97;96.45
66381;BME280;53177;52.648;1.214;2023-04-29T05:21:02;101547.91;;;4.93;96.07
66381;BME280;53177;52.648;1.214;2023-04-29T05:23:28;101553.22;;;4.98;96.42
66381;BME280;53177;52.648;1.214;2023-04-29T05:25:53;101562.81;;;4.97;96.84
66381;BME280;53177;52.648;1.214;2023-04-29T05:28:19;101565.59;;;5.08;96.70
66381;BME280;53177;52.648;1.214;2023-04-29T05:30:44;101565.72;;;5.17;96.59
66381;BME280;53177;52.648;1.214;2023-04-29T05:33:10;101567.44;;;5.15;96.89
66381;BME280;53177;52.648;1.214;2023-04-29T05:35:36;101567.47;;;5.18;97.16
66381;BME280;53177;52.648;1.214;2023-04-29T05:38:02;101568.34;;;5.17;97.06
66381;BME280;53177;52.648;1.214;2023-04-29T05:40:27;101571.88;;;5.22;97.66
66381;BME280;53177;52.648;1.214;2023-04-29T05:42:53;101573.63;;;5.20;97.60
66381;BME280;53177;52.648;1.214;2023-04-29T05:45:19;101573.53;;;5.14;99.14
66381;BME280;53177;52.648;1.214;2023-04-29T05:47:44;101580.66;;;5.25;98.43
66381;BME280;53177;52.648;1.214;2023-04-29T05:50:10;101583.47;;;5.40;99.45
66381;BME280;53177;52.648;1.214;2023-04-29T05:52:36;101588.84;;;5.51;100.00
66381;BME280;53177;52.648;1.214;2023-04-29T05:55:01;101588.94;;;5.59;100.00
66381;BME280;53177;52.648;1.214;2023-04-29T05:57:27;101580.38;;;5.72;100.00
66381;BME280;53177;52.648;1.214;2023-04-29T05:59:52;101578.66;;;5.77;100.00
66381;BME280;53177;52.648;1.214;2023-04-29T06:02:19;101584.91;;;5.88;100.00
66381;BME280;53177;52.648;1.214;2023-04-29T06:04:45;101592.00;;;5.95;100.00
66381;BME280;53177;52.648;1.214;2023-04-29T06:07:12;101585.13;;;6.08;100.00
66381;BME280;53177;52.648;1.214;2023-04-29T06:09:38;101590.44;;;6.12;100.00
66381;BME280;53177;52.648;1.214;2023-04-29T06:12:04;101589.63;;;6.22;100.00
66381;BME280;53177;52.648;1.214;2023-04-29T06:14:30;101586.19;;;6.28;100.00
66381;BME280;53177;52.648;1.214;2023-04-29T06:16:55;101593.28;;;6.40;100.00
66381;BME280;53177;52.648;1.214;2023-04-29T06:19:21;101593.34;;;6.46;100.00
66381;BME280;53177;52.648;1.214;2023-04-29T06:21:46;101596.00;;;6.49;100.00
66381;BME280;53177;52.648;1.214;2023-04-29T06:24:11;101600.41;;;6.53;100.00
66381;BME280;53177;52.648;1.214;2023-04-29T06:26:37;101596.06;;;6.56;100.00
66381;BME280;53177;52.648;1.214;2023-04-29T06:29:02;101592.56;;;6.57;100.00
66381;BME280;53177;52.648;1.214;2023-04-29T06:31:28;101597.84;;;6.60;100.00
66381;BME280;53177;52.648;1.214;2023-04-29T06:33:53;101602.25;;;6.66;100.00
66381;BME280;53177;52.648;1.214;2023-04-29T06:36:19;101595.31;;;6.72;100.00
66381;BME280;53177;52.648;1.214;2023-04-29T06:38:44;101604.13;;;6.79;100.00
66381;BME280;53177;52.648;1.214;2023-04-29T06:41:10;101600.66;;;6.88;100.00
66381;BME280;53177;52.648;1.214;2023-04-29T06:43:35;101605.94;;;6.91;100.00
66381;BME280;53177;52.648;1.214;2023-04-29T06:46:01;101609.50;;;7.03;100.00
66381;BME280;53177;52.648;1.214;2023-04-29T06:48:26;101611.34;;;7.15;100.00
66381;BME280;53177;52.648;1.214;2023-04-29T06:50:53;101615.78;;;7.26;100.00
66381;BME280;53177;52.648;1.214;2023-04-29T06:53:20;101614.09;;;7.39;100.00
66381;BME280;53177;52.648;1.214;2023-04-29T06:55:46;101618.53;;;7.52;100.00
66381;BME280;53177;52.648;1.214;2023-04-29T06:58:14;101622.06;;;7.59;100.00
66381;BME280;53177;52.648;1.214;2023-04-29T07:00:43;101628.22;;;7.65;100.00
66381;BME280;53177;52.648;1.214;2023-04-29T07:03:09;101626.53;;;7.72;100.00
66381;BME280;53177;52.648;1.214;2023-04-29T07:05:35;101627.44;;;7.81;100.00
66381;BME280;53177;52.648;1.214;2023-04-29T07:08:03;101625.69;;;7.87;100.00
66381;BME280;53177;52.648;1.214;2023-04-29T07:10:29;101635.34;;;7.98;100.00
66381;BME280;53177;52.648;1.214;2023-04-29T07:12:55;101632.72;;;7.95;100.00
66381;BME280;53177;52.648;1.214;2023-04-29T07:15:20;101630.16;;;8.09;100.00
66381;BME280;53177;52.648;1.214;2023-04-29T07:17:46;101631.91;;;8.25;100.00
66381;BME280;53177;52.648;1.214;2023-04-29T07:20:12;101634.53;;;8.17;99.50
66381;BME280;53177;52.648;1.214;2023-04-29T07:22:37;101634.53;;;8.20;100.00
66381;BME280;53177;52.648;1.214;2023-04-29T07:25:03;101645.97;;;8.22;98.79
66381;BME280;53177;52.648;1.214;2023-04-29T07:27:28;101643.34;;;8.27;97.38
66381;BME280;53177;52.648;1.214;2023-04-29T07:29:54;101642.50;;;8.45;96.94
66381;BME280;53177;52.648;1.214;2023-04-29T07:32:19;101641.63;;;8.74;97.01
66381;BME280;53177;52.648;1.214;2023-04-29T07:34:45;101640.72;;;8.95;97.62
66381;BME280;53177;52.648;1.214;2023-04-29T07:37:11;101638.09;;;8.98;96.76
66381;BME280;53177;52.648;1.214;2023-04-29T07:39:38;101648.66;;;8.92;94.04
66381;BME280;53177;52.648;1.214;2023-04-29T07:42:03;101653.06;;;8.93;91.61
66381;BME280;53177;52.648;1.214;2023-04-29T07:44:29;101645.13;;;9.04;92.70
66381;BME280;53177;52.648;1.214;2023-04-29T07:46:54;101647.75;;;9.14;90.10
66381;BME280;53177;52.648;1.214;2023-04-29T07:49:19;101650.34;;;9.34;88.04
66381;BME280;53177;52.648;1.214;2023-04-29T07:51:45;101648.56;;;9.41;84.89
66381;BME280;53177;52.648;1.214;2023-04-29T07:54:10;101650.28;;;9.46;84.70
66381;BME280;53177;52.648;1.214;2023-04-29T07:56:36;101649.41;;;9.53;84.62
66381;BME280;53177;52.648;1.214;2023-04-29T07:59:01;101649.38;;;9.55;83.52
66381;BME280;53177;52.648;1.214;2023-04-29T08:01:27;101652.88;;;9.61;83.63
66381;BME280;53177;52.648;1.214;2023-04-29T08:03:53;101657.22;;;9.76;83.07
66381;BME280;53177;52.648;1.214;2023-04-29T08:06:19;101650.94;;;9.98;83.37
66381;BME280;53177;52.648;1.214;2023-04-29T08:08:47;101649.13;;;10.09;80.62
66381;BME280;53177;52.648;1.214;2023-04-29T08:11:18;101655.22;;;10.30;80.00
66381;BME280;53177;52.648;1.214;2023-04-29T08:13:45;101650.69;;;10.48;77.95
66381;BME280;53177;52.648;1.214;2023-04-29T08:16:11;101663.00;;;10.48;77.36
66381;BME280;53177;52.648;1.214;2023-04-29T08:18:37;101663.75;;;10.66;77.90
66381;BME280;53177;52.648;1.214;2023-04-29T08:21:02;101655.59;;;10.92;78.53
66381;BME280;53177;52.648;1.214;2023-04-29T08:23:28;101656.41;;;10.99;75.20
66381;BME280;53177;52.648;1.214;2023-04-29T08:25:54;101651.03;;;11.06;75.01
66381;BME280;53177;52.648;1.214;2023-04-29T08:28:20;101650.97;;;11.15;73.16
66381;BME280;53177;52.648;1.214;2023-04-29T08:30:46;101654.41;;;11.22;72.21
66381;BME280;53177;52.648;1.214;2023-04-29T08:33:12;101665.75;;;11.35;72.22
66381;BME280;53177;52.648;1.214;2023-04-29T08:35:38;101664.69;;;11.49;70.61
66381;BME280;53177;52.648;1.214;2023-04-29T08:38:05;101662.78;;;11.63;70.72
66381;BME280;53177;52.648;1.214;2023-04-29T08:40:34;101666.22;;;11.71;69.08
66381;BME280;53177;52.648;1.214;2023-04-29T08:43:02;101662.75;;;11.65;69.26
66381;BME280;53177;52.648;1.214;2023-04-29T08:45:28;101673.19;;;11.80;67.94
66381;BME280;53177;52.648;1.214;2023-04-29T08:47:54;101665.91;;;11.97;67.86
66381;BME280;53177;52.648;1.214;2023-04-29T08:50:21;101671.09;;;12.08;69.43
66381;BME280;53177;52.648;1.214;2023-04-29T08:52:49;101668.25;;;12.22;66.06
66381;BME280;53177;52.648;1.214;2023-04-29T08:55:14;101680.19;;;11.89;68.24
66381;BME280;53177;52.648;1.214;2023-04-29T08:57:42;101685.69;;;12.38;70.51
66381;BME280;53177;52.648;1.214;2023-04-29T09:00:09;101688.81;;;12.64;67.51
66381;BME280;53177;52.648;1.214;2023-04-29T09:02:42;101681.13;;;12.46;64.54
66381;BME280;53177;52.648;1.214;2023-04-29T09:05:09;101689.44;;;12.23;67.03
66381;BME280;53177;52.648;1.214;2023-04-29T09:07:38;101694.34;;;12.50;69.51
66381;BME280;53177;52.648;1.214;2023-04-29T09:10:04;101698.34;;;12.77;70.98
66381;BME280;53177;52.648;1.214;2023-04-29T09:12:30;101692.38;;;12.61;65.37
66381;BME280;53177;52.648;1.214;2023-04-29T09:14:56;101689.25;;;12.90;69.44
66381;BME280;53177;52.648;1.214;2023-04-29T09:17:42;101679.25;;;13.07;67.56
66381;BME280;53177;52.648;1.214;2023-04-29T09:22:56;101684.53;;;13.56;68.74
66381;BME280;53177;52.648;1.214;2023-04-29T09:25:22;101683.28;;;13.76;67.14
66381;BME280;53177;52.648;1.214;2023-04-29T09:27:47;101690.13;;;13.89;66.86
66381;BME280;53177;52.648;1.214;2023-04-29T09:30:13;101690.50;;;13.69;64.65
66381;BME280;53177;52.648;1.214;2023-04-29T09:32:41;101697.13;;;13.93;64.95
66381;BME280;53177;52.648;1.214;2023-04-29T09:35:38;101701.91;;;14.17;65.27
66381;BME280;53177;52.648;1.214;2023-04-29T09:38:12;101692.50;;;14.42;65.90
66381;BME280;53177;52.648;1.214;2023-04-29T09:40:40;101691.09;;;14.65;64.63
66381;BME280;53177;52.648;1.214;2023-04-29T09:43:14;101690.03;;;14.72;61.04
66381;BME280;53177;52.648;1.214;2023-04-29T09:45:42;101697.09;;;14.34;61.94
66381;BME280;53177;52.648;1.214;2023-04-29T09:48:09;101685.94;;;14.57;62.97
66381;BME280;53177;52.648;1.214;2023-04-29T09:50:36;101695.13;;;14.81;62.23
66381;BME280;53177;52.648;1.214;2023-04-29T09:53:03;101696.19;;;15.09;61.45
66381;BME280;53177;52.648;1.214;2023-04-29T09:55:28;101696.75;;;15.22;59.82
66381;BME280;53177;52.648;1.214;2023-04-29T09:57:54;101697.47;;;14.93;64.26
66381;BME280;53177;52.648;1.214;2023-04-29T10:00:20;101694.03;;;15.23;59.46
66381;BME280;53177;52.648;1.214;2023-04-29T10:02:47;101693.53;;;15.41;59.38
66381;BME280;53177;52.648;1.214;2023-04-29T10:05:16;101688.38;;;15.69;58.52
66381;BME280;53177;52.648;1.214;2023-04-29T10:07:42;101690.03;;;15.41;62.17
66381;BME280;53177;52.648;1.214;2023-04-29T10:10:08;101695.13;;;15.48;57.63
66381;BME280;53177;52.648;1.214;2023-04-29T10:12:36;101699.94;;;15.68;62.68
66381;BME280;53177;52.648;1.214;2023-04-29T10:17:54;101696.44;;;15.97;57.86
66381;BME280;53177;52.648;1.214;2023-04-29T10:20:23;101692.66;;;15.75;58.93
66381;BME280;53177;52.648;1.214;2023-04-29T10:22:52;101695.47;;;15.70;56.77
66381;BME280;53177;52.648;1.214;2023-04-29T10:25:23;101701.72;;;15.35;55.37
66381;BME280;53177;52.648;1.214;2023-04-29T10:27:49;101697.66;;;15.21;53.81
66381;BME280;53177;52.648;1.214;2023-04-29T10:30:18;101710.16;;;15.85;54.63
66381;BME280;53177;52.648;1.214;2023-04-29T10:32:47;101702.22;;;15.82;54.55
66381;BME280;53177;52.648;1.214;2023-04-29T10:35:15;101697.59;;;15.57;56.28
66381;BME280;53177;52.648;1.214;2023-04-29T10:37:41;101698.72;;;15.80;54.61
66381;BME280;53177;52.648;1.214;2023-04-29T10:40:13;101700.66;;;16.05;58.71
66381;BME280;53177;52.648;1.214;2023-04-29T10:42:46;101699.22;;;16.23;55.08
66381;BME280;53177;52.648;1.214;2023-04-29T10:53:11;101697.00;;;16.08;58.51
66381;BME280;53177;52.648;1.214;2023-04-29T10:55:38;101701.16;;;16.75;57.95
66381;BME280;53177;52.648;1.214;2023-04-29T10:58:05;101700.81;;;17.12;61.15
66381;BME280;53177;52.648;1.214;2023-04-29T11:00:33;101709.94;;;17.07;60.88
66381;BME280;53177;52.648;1.214;2023-04-29T11:03:04;101705.84;;;17.47;62.39
66381;BME280;53177;52.648;1.214;2023-04-29T11:05:36;101700.94;;;17.60;53.69
66381;BME280;53177;52.648;1.214;2023-04-29T11:08:27;101694.66;;;17.61;50.18
66381;BME280;53177;52.648;1.214;2023-04-29T11:10:55;101691.81;;;17.15;49.66
66381;BME280;53177;52.648;1.214;2023-04-29T11:13:29;101684.63;;;16.35;50.23
66381;BME280;53177;52.648;1.214;2023-04-29T11:16:05;101684.06;;;16.81;58.65
66381;BME280;53177;52.648;1.214;2023-04-29T11:18:32;101682.06;;;17.14;54.22
66381;BME280;53177;52.648;1.214;2023-04-29T11:23:33;101685.81;;;17.84;53.34
66381;BME280;53177;52.648;1.214;2023-04-29T11:25:58;101688.06;;;17.94;49.58
66381;BME280;53177;52.648;1.214;2023-04-29T11:28:26;101688.41;;;17.85;53.92
66381;BME280;53177;52.648;1.214;2023-04-29T11:30:52;101686.03;;;18.01;53.67
66381;BME280;53177;52.648;1.214;2023-04-29T11:33:21;101686.56;;;17.63;56.14
66381;BME280;53177;52.648;1.214;2023-04-29T11:35:46;101691.53;;;17.96;56.94
66381;BME280;53177;52.648;1.214;2023-04-29T11:38:12;101683.97;;;18.08;55.37
66381;BME280;53177;52.648;1.214;2023-04-29T11:40:50;101681.31;;;18.08;54.93
66381;BME280;53177;52.648;1.214;2023-04-29T11:43:16;101679.59;;;18.07;52.17
66381;BME280;53177;52.648;1.214;2023-04-29T11:45:44;101676.50;;;18.17;55.17
66381;BME280;53177;52.648;1.214;2023-04-29T11:48:16;101680.25;;;17.65;49.67
66381;BME280;53177;52.648;1.214;2023-04-29T11:50:42;101683.09;;;16.83;51.14
66381;BME280;53177;52.648;1.214;2023-04-29T11:53:08;101683.66;;;17.44;59.83
66381;BME280;53177;52.648;1.214;2023-04-29T11:55:33;101680.00;;;17.71;54.37
66381;BME280;53177;52.648;1.214;2023-04-29T11:57:59;101686.63;;;18.09;51.96
66381;BME280;53177;52.648;1.214;2023-04-29T12:00:24;101683.66;;;18.62;63.68
66381;BME280;53177;52.648;1.214;2023-04-29T12:02:50;101673.19;;;18.56;53.23
66381;BME280;53177;52.648;1.214;2023-04-29T12:05:15;101675.41;;;18.66;54.54
66381;BME280;53177;52.648;1.214;2023-04-29T12:07:43;101670.31;;;18.82;61.44
66381;BME280;53177;52.648;1.214;2023-04-29T12:10:09;101683.03;;;18.55;51.41
66381;BME280;53177;52.648;1.214;2023-04-29T12:12:36;101683.09;;;18.30;56.00
66381;BME280;53177;52.648;1.214;2023-04-29T12:15:07;101684.03;;;18.29;51.82
66381;BME280;53177;52.648;1.214;2023-04-29T12:17:34;101683.91;;;17.86;52.17
66381;BME280;53177;52.648;1.214;2023-04-29T12:19:59;101691.78;;;17.90;53.15
66381;BME280;53177;52.648;1.214;2023-04-29T12:22:32;101684.50;;;17.94;52.95
66381;BME280;53177;52.648;1.214;2023-04-29T12:24:58;101685.78;;;18.30;51.17
66381;BME280;53177;52.648;1.214;2023-04-29T12:27:23;101684.75;;;17.88;60.99
66381;BME280;53177;52.648;1.214;2023-04-29T12:29:51;101683.19;;;18.06;51.62
66381;BME280;53177;52.648;1.214;2023-04-29T12:32:20;101692.59;;;18.62;57.72
66381;BME280;53177;52.648;1.214;2023-04-29T12:34:46;101691.81;;;19.02;55.98
66381;BME280;53177;52.648;1.214;2023-04-29T12:37:12;101689.75;;;18.87;57.35
66381;BME280;53177;52.648;1.214;2023-04-29T12:39:40;101689.25;;;18.99;53.77
66381;BME280;53177;52.648;1.214;2023-04-29T12:42:05;101682.47;;;19.11;50.07
66381;BME280;53177;52.648;1.214;2023-04-29T12:44:37;101685.38;;;19.06;49.85
66381;BME280;53177;52.648;1.214;2023-04-29T12:47:09;101686.06;;;18.46;48.91
66381;BME280;53177;52.648;1.214;2023-04-29T12:49:37;101694.22;;;19.08;59.36
66381;BME280;53177;52.648;1.214;2023-04-29T12:52:05;101686.88;;;19.13;60.53
66381;BME280;53177;52.648;1.214;2023-04-29T12:54:37;101693.47;;;18.84;53.72
66381;BME280;53177;52.648;1.214;2023-04-29T12:57:05;101687.97;;;18.87;62.78
66381;BME280;53177;52.648;1.214;2023-04-29T12:59:30;101691.50;;;19.30;54.87
66381;BME280;53177;52.648;1.214;2023-04-29T13:01:56;101694.13;;;19.52;52.70
66381;BME280;53177;52.648;1.214;2023-04-29T13:04:21;101695.66;;;19.17;51.11
66381;BME280;53177;52.648;1.214;2023-04-29T13:06:46;101691.59;;;19.49;49.67
66381;BME280;53177;52.648;1.214;2023-04-29T13:09:12;101691.69;;;18.83;49.78
66381;BME280;53177;52.648;1.214;2023-04-29T13:11:38;101701.06;;;18.73;56.85
66381;BME280;53177;52.648;1.214;2023-04-29T13:14:04;101698.31;;;18.75;50.45
66381;BME280;53177;52.648;1.214;2023-04-29T13:16:31;101702.41;;;19.05;56.99
66381;BME280;53177;52.648;1.214;2023-04-29T13:18:57;101706.09;;;18.81;48.72
66381;BME280;53177;52.648;1.214;2023-04-29T13:21:22;101696.44;;;18.32;51.96